sensor_id;sensor_type;location;lat;lon;timestamp;pressure;altitude;pressure_sealevel;temperature;humidity
37972;BME280;23794;48.234;8.344;2023-06-26T00:00:03;94413.34;;;16.33;60.32
37972;BME280;23794;48.234;8.344;2023-06-26T00:02:31;94414.13;;;16.34;59.64
37972;BME280;23794;48.234;8.344;2023-06-26T00:04:59;94406.44;;;16.25;60.46
37972;BME280;23794;48.234;8.344;2023-06-26T00:07:29;94414.97;;;16.31;61.21
37972;BME280;23794;48.234;8.344;2023-06-26T00:09:57;94409.13;;;16.29;61.12
37972;BME280;23794;48.234;8.344;2023-06-26T00:12:23;94408.06;;;16.22;60.21
37972;BME280;23794;48.234;8.344;2023-06-26T00:14:50;94404.72;;;16.15;60.08
37972;BME280;23794;48.234;8.344;2023-06-26T00:17:17;94413.78;;;16.15;60.45
37972;BME280;23794;48.234;8.344;2023-06-26T00:19:44;94404.38;;;16.13;60.37
37972;BME280;23794;48.234;8.344;2023-06-26T00:22:11;94402.91;;;16.08;61.03
37972;BME280;23794;48.234;8.344;2023-06-26T00:24:37;94411.97;;;16.08;61.72
37972;BME280;23794;48.234;8.344;2023-06-26T00:27:04;94404.53;;;16.05;61.66
37972;BME280;23794;48.234;8.344;2023-06-26T00:29:31;94404.53;;;16.05;61.30
37972;BME280;23794;48.234;8.344;2023-06-26T00:31:57;94414.22;;;15.97;61.55
37972;BME280;23794;48.234;8.344;2023-06-26T00:34:25;94412.72;;;15.92;61.46
37972;BME280;23794;48.234;8.344;2023-06-26T00:36:51;94416.97;;;15.97;61.29
37972;BME280;23794;48.234;8.344;2023-06-26T00:39:18;94409.97;;;15.92;61.96
37972;BME280;23794;48.234;8.344;2023-06-26T00:41:45;94408.69;;;15.97;61.78
37972;BME280;23794;48.234;8.344;2023-06-26T00:44:11;94413.09;;;15.94;62.63
37972;BME280;23794;48.234;8.344;2023-06-26T00:46:38;94403.50;;;15.99;62.36
37972;BME280;23794;48.234;8.344;2023-06-26T00:49:04;94412.72;;;15.92;61.86
37972;BME280;23794;48.234;8.344;2023-06-26T00:51:31;94407.63;;;15.91;61.76
37972;BME280;23794;48.234;8.344;2023-06-26T00:53:59;94412.09;;;15.85;61.83
37972;BME280;23794;48.234;8.344;2023-06-26T00:56:26;94409.69;;;15.87;62.44
37972;BME280;23794;48.234;8.344;2023-06-26T00:58:53;94403.81;;;15.85;62.16
37972;BME280;23794;48.234;8.344;2023-06-26T01:01:20;94410.19;;;15.82;61.75
37972;BME280;23794;48.234;8.344;2023-06-26T01:03:49;94408.81;;;15.73;62.11
37972;BME280;23794;48.234;8.344;2023-06-26T01:06:21;94418.81;;;15.67;62.55
37972;BME280;23794;48.234;8.344;2023-06-26T01:08:48;94413.22;;;15.71;62.66
37972;BME280;23794;48.234;8.344;2023-06-26T01:11:18;94403.72;;;15.72;62.73
37972;BME280;23794;48.234;8.344;2023-06-26T01:13:45;94411.56;;;15.73;62.66
37972;BME280;23794;48.234;8.344;2023-06-26T01:16:12;94410.72;;;15.76;62.29
37972;BME280;23794;48.234;8.344;2023-06-26T01:18:41;94412.16;;;15.64;62.05
37972;BME280;23794;48.234;8.344;2023-06-26T01:21:09;94416.94;;;15.64;62.73
37972;BME280;23794;48.234;8.344;2023-06-26T01:24:00;94415.44;;;15.59;63.55
37972;BME280;23794;48.234;8.344;2023-06-26T01:26:32;94407.94;;;15.60;62.50
37972;BME280;23794;48.234;8.344;2023-06-26T01:29:03;94411.13;;;15.58;62.97
37972;BME280;23794;48.234;8.344;2023-06-26T01:31:31;94409.56;;;15.57;63.37
37972;BME280;23794;48.234;8.344;2023-06-26T01:34:00;94406.44;;;15.55;62.82
37972;BME280;23794;48.234;8.344;2023-06-26T01:36:27;94403.78;;;15.52;63.93
37972;BME280;23794;48.234;8.344;2023-06-26T01:38:54;94399.03;;;15.52;64.01
37972;BME280;23794;48.234;8.344;2023-06-26T01:41:23;94404.03;;;15.57;63.18
37972;BME280;23794;48.234;8.344;2023-06-26T01:44:03;94394.38;;;15.49;63.82
37972;BME280;23794;48.234;8.344;2023-06-26T01:54:45;94404.81;;;15.58;62.94
37972;BME280;23794;48.234;8.344;2023-06-26T01:57:14;94403.38;;;15.53;64.14
37972;BME280;23794;48.234;8.344;2023-06-26T01:59:42;94403.16;;;15.44;64.34
37972;BME280;23794;48.234;8.344;2023-06-26T02:02:09;94404.81;;;15.41;64.06
37972;BME280;23794;48.234;8.344;2023-06-26T02:04:36;94403.31;;;15.37;64.39
37972;BME280;23794;48.234;8.344;2023-06-26T02:09:36;94408.56;;;15.31;64.83
37972;BME280;23794;48.234;8.344;2023-06-26T02:12:02;94405.44;;;15.29;64.61
37972;BME280;23794;48.234;8.344;2023-06-26T02:14:29;94403.56;;;15.26;64.99
37972;BME280;23794;48.234;8.344;2023-06-26T02:16:56;94409.47;;;15.24;65.25
37972;BME280;23794;48.234;8.344;2023-06-26T02:19:22;94409.84;;;15.26;64.82
37972;BME280;23794;48.234;8.344;2023-06-26T02:21:49;94409.00;;;15.29;64.78
37972;BME280;23794;48.234;8.344;2023-06-26T02:24:16;94402.75;;;15.25;64.97
37972;BME280;23794;48.234;8.344;2023-06-26T02:26:42;94404.03;;;15.21;65.02
37972;BME280;23794;48.234;8.344;2023-06-26T02:29:10;94401.09;;;15.11;65.04
37972;BME280;23794;48.234;8.344;2023-06-26T02:31:39;94404.53;;;15.15;65.09
37972;BME280;23794;48.234;8.344;2023-06-26T02:34:06;94401.84;;;15.12;65.65
37972;BME280;23794;48.234;8.344;2023-06-26T02:36:33;94406.25;;;15.09;65.46
37972;BME280;23794;48.234;8.344;2023-06-26T02:39:04;94405.88;;;15.07;65.83
37972;BME280;23794;48.234;8.344;2023-06-26T02:41:30;94406.25;;;15.09;65.29
37972;BME280;23794;48.234;8.344;2023-06-26T02:43:57;94404.00;;;15.04;65.47
37972;BME280;23794;48.234;8.344;2023-06-26T02:46:25;94412.97;;;15.08;65.67
37972;BME280;23794;48.234;8.344;2023-06-26T02:48:52;94401.16;;;15.08;65.14
37972;BME280;23794;48.234;8.344;2023-06-26T02:51:19;94409.38;;;15.11;64.29
37972;BME280;23794;48.234;8.344;2023-06-26T02:53:46;94407.75;;;15.14;63.99
37972;BME280;23794;48.234;8.344;2023-06-26T02:56:12;94394.94;;;15.04;65.17
37972;BME280;23794;48.234;8.344;2023-06-26T02:58:39;94398.19;;;14.98;65.59
37972;BME280;23794;48.234;8.344;2023-06-26T03:01:06;94400.53;;;15.00;65.07
37972;BME280;23794;48.234;8.344;2023-06-26T03:03:32;94397.31;;;15.02;64.37
37972;BME280;23794;48.234;8.344;2023-06-26T03:06:12;94400.97;;;14.98;64.84
37972;BME280;23794;48.234;8.344;2023-06-26T03:08:39;94395.94;;;14.93;65.12
37972;BME280;23794;48.234;8.344;2023-06-26T03:11:07;94392.59;;;15.02;64.02
37972;BME280;23794;48.234;8.344;2023-06-26T03:13:35;94398.03;;;15.06;63.86
37972;BME280;23794;48.234;8.344;2023-06-26T03:16:03;94402.84;;;15.02;64.46
37972;BME280;23794;48.234;8.344;2023-06-26T03:18:30;94398.13;;;15.02;65.25
37972;BME280;23794;48.234;8.344;2023-06-26T03:20:57;94400.09;;;15.02;64.82
37972;BME280;23794;48.234;8.344;2023-06-26T03:23:24;94403.19;;;15.04;64.18
37972;BME280;23794;48.234;8.344;2023-06-26T03:25:51;94400.22;;;14.94;64.46
37972;BME280;23794;48.234;8.344;2023-06-26T03:28:33;94408.50;;;14.94;64.97
37972;BME280;23794;48.234;8.344;2023-06-26T03:30:59;94396.72;;;14.94;64.45
37972;BME280;23794;48.234;8.344;2023-06-26T03:33:26;94397.22;;;14.89;65.65
37972;BME280;23794;48.234;8.344;2023-06-26T03:35:54;94403.41;;;14.93;64.68
37972;BME280;23794;48.234;8.344;2023-06-26T03:38:21;94402.22;;;14.94;65.13
37972;BME280;23794;48.234;8.344;2023-06-26T03:40:49;94403.41;;;14.93;64.52
37972;BME280;23794;48.234;8.344;2023-06-26T03:43:15;94407.38;;;14.92;64.98
37972;BME280;23794;48.234;8.344;2023-06-26T03:45:49;94405.13;;;14.87;65.49
37972;BME280;23794;48.234;8.344;2023-06-26T03:48:16;94402.66;;;14.92;65.13
37972;BME280;23794;48.234;8.344;2023-06-26T03:50:43;94399.47;;;14.94;65.98
37972;BME280;23794;48.234;8.344;2023-06-26T03:53:10;94407.16;;;15.03;64.80
37972;BME280;23794;48.234;8.344;2023-06-26T03:55:39;94407.88;;;15.07;64.35
37972;BME280;23794;48.234;8.344;2023-06-26T03:58:06;94413.41;;;15.07;65.11
37972;BME280;23794;48.234;8.344;2023-06-26T04:00:33;94401.84;;;15.12;64.21
37972;BME280;23794;48.234;8.344;2023-06-26T04:03:00;94410.94;;;15.12;64.24
37972;BME280;23794;48.234;8.344;2023-06-26T04:05:26;94414.44;;;15.13;64.48
37972;BME280;23794;48.234;8.344;2023-06-26T04:07:53;94414.03;;;15.14;65.13
37972;BME280;23794;48.234;8.344;2023-06-26T04:10:20;94411.47;;;15.24;64.79
37972;BME280;23794;48.234;8.344;2023-06-26T04:12:47;94412.88;;;15.32;64.51
37972;BME280;23794;48.234;8.344;2023-06-26T04:15:14;94410.56;;;15.30;65.30
37972;BME280;23794;48.234;8.344;2023-06-26T04:17:41;94415.13;;;15.37;64.87
37972;BME280;23794;48.234;8.344;2023-06-26T04:20:08;94411.69;;;15.33;64.78
37972;BME280;23794;48.234;8.344;2023-06-26T04:22:35;94417.13;;;15.37;64.75
37972;BME280;23794;48.234;8.344;2023-06-26T04:25:03;94418.09;;;15.46;64.73
37972;BME280;23794;48.234;8.344;2023-06-26T04:27:30;94425.25;;;15.44;63.88
37972;BME280;23794;48.234;8.344;2023-06-26T04:30:02;94428.28;;;15.50;64.81
37972;BME280;23794;48.234;8.344;2023-06-26T04:32:29;94425.09;;;15.51;64.56
37972;BME280;23794;48.234;8.344;2023-06-26T04:34:55;94422.59;;;15.57;64.71
37972;BME280;23794;48.234;8.344;2023-06-26T04:37:22;94413.97;;;15.55;65.10
37972;BME280;23794;48.234;8.344;2023-06-26T04:39:50;94415.81;;;15.61;64.86
37972;BME280;23794;48.234;8.344;2023-06-26T04:42:17;94423.28;;;15.61;65.08
37972;BME280;23794;48.234;8.344;2023-06-26T04:44:45;94412.59;;;15.63;65.16
37972;BME280;23794;48.234;8.344;2023-06-26T04:47:11;94414.16;;;15.64;65.49
37972;BME280;23794;48.234;8.344;2023-06-26T04:49:41;94411.41;;;15.64;65.72
37972;BME280;23794;48.234;8.344;2023-06-26T04:52:13;94418.72;;;15.71;65.13
37972;BME280;23794;48.234;8.344;2023-06-26T04:54:39;94410.34;;;15.74;66.27
37972;BME280;23794;48.234;8.344;2023-06-26T04:57:06;94418.47;;;15.82;64.82
37972;BME280;23794;48.234;8.344;2023-06-26T04:59:33;94414.78;;;15.88;64.59
37972;BME280;23794;48.234;8.344;2023-06-26T05:01:59;94415.16;;;15.90;65.65
37972;BME280;23794;48.234;8.344;2023-06-26T05:04:26;94409.31;;;16.05;65.05
37972;BME280;23794;48.234;8.344;2023-06-26T05:06:52;94406.81;;;16.10;65.19
37972;BME280;23794;48.234;8.344;2023-06-26T05:09:19;94406.94;;;16.20;64.30
37972;BME280;23794;48.234;8.344;2023-06-26T05:11:46;94410.66;;;16.30;64.15
37972;BME280;23794;48.234;8.344;2023-06-26T05:14:12;94397.44;;;16.37;65.18
37972;BME280;23794;48.234;8.344;2023-06-26T05:16:40;94395.59;;;16.47;63.81
37972;BME280;23794;48.234;8.344;2023-06-26T05:19:06;94404.50;;;16.55;64.33
37972;BME280;23794;48.234;8.344;2023-06-26T05:21:34;94398.44;;;16.60;64.33
37972;BME280;23794;48.234;8.344;2023-06-26T05:24:02;94397.03;;;16.68;62.78
37972;BME280;23794;48.234;8.344;2023-06-26T05:26:29;94401.31;;;16.86;63.16
37972;BME280;23794;48.234;8.344;2023-06-26T05:28:56;94406.13;;;16.98;62.82
37972;BME280;23794;48.234;8.344;2023-06-26T05:31:23;94401.16;;;17.06;63.43
37972;BME280;23794;48.234;8.344;2023-06-26T05:33:52;94394.56;;;17.16;62.43
37972;BME280;23794;48.234;8.344;2023-06-26T05:36:22;94401.78;;;17.27;62.33
37972;BME280;23794;48.234;8.344;2023-06-26T05:38:50;94399.47;;;17.38;62.95
37972;BME280;23794;48.234;8.344;2023-06-26T05:41:17;94399.72;;;17.57;62.22
37972;BME280;23794;48.234;8.344;2023-06-26T05:43:47;94405.47;;;17.75;62.23
37972;BME280;23794;48.234;8.344;2023-06-26T05:46:13;94408.59;;;17.90;61.60
37972;BME280;23794;48.234;8.344;2023-06-26T05:48:40;94407.06;;;18.02;61.06
37972;BME280;23794;48.234;8.344;2023-06-26T05:51:07;94399.94;;;18.14;58.95
37972;BME280;23794;48.234;8.344;2023-06-26T05:53:34;94396.03;;;18.24;58.71
37972;BME280;23794;48.234;8.344;2023-06-26T05:56:01;94401.09;;;18.39;59.11
37972;BME280;23794;48.234;8.344;2023-06-26T05:58:28;94394.53;;;18.58;59.28
37972;BME280;23794;48.234;8.344;2023-06-26T06:00:54;94391.25;;;18.73;58.42
37972;BME280;23794;48.234;8.344;2023-06-26T06:03:21;94393.22;;;18.85;57.72
37972;BME280;23794;48.234;8.344;2023-06-26T06:05:48;94400.63;;;19.10;57.54
37972;BME280;23794;48.234;8.344;2023-06-26T06:08:15;94395.81;;;19.24;57.20
37972;BME280;23794;48.234;8.344;2023-06-26T06:10:41;94401.41;;;19.33;56.75
37972;BME280;23794;48.234;8.344;2023-06-26T06:13:08;94402.13;;;19.47;56.17
37972;BME280;23794;48.234;8.344;2023-06-26T06:15:35;94403.56;;;19.61;56.65
37972;BME280;23794;48.234;8.344;2023-06-26T06:18:01;94402.91;;;19.79;55.18
37972;BME280;23794;48.234;8.344;2023-06-26T06:20:28;94399.25;;;20.00;55.15
37972;BME280;23794;48.234;8.344;2023-06-26T06:22:54;94397.78;;;20.18;54.45
37972;BME280;23794;48.234;8.344;2023-06-26T06:25:21;94392.88;;;20.31;54.40
37972;BME280;23794;48.234;8.344;2023-06-26T06:27:47;94392.25;;;20.46;53.53
37972;BME280;23794;48.234;8.344;2023-06-26T06:30:14;94398.22;;;20.66;52.98
37972;BME280;23794;48.234;8.344;2023-06-26T06:32:41;94395.25;;;20.89;52.78
37972;BME280;23794;48.234;8.344;2023-06-26T06:35:07;94387.69;;;21.08;52.76
37972;BME280;23794;48.234;8.344;2023-06-26T06:37:38;94387.50;;;21.30;51.23
37972;BME280;23794;48.234;8.344;2023-06-26T06:40:05;94387.94;;;21.56;51.03
37972;BME280;23794;48.234;8.344;2023-06-26T06:42:32;94384.31;;;21.74;51.46
37972;BME280;23794;48.234;8.344;2023-06-26T06:45:01;94386.25;;;21.92;49.95
37972;BME280;23794;48.234;8.344;2023-06-26T06:47:28;94385.38;;;22.10;47.55
37972;BME280;23794;48.234;8.344;2023-06-26T06:49:55;94373.50;;;22.34;48.24
37972;BME280;23794;48.234;8.344;2023-06-26T06:52:22;94384.63;;;22.44;47.37
37972;BME280;23794;48.234;8.344;2023-06-26T06:54:53;94383.78;;;22.52;46.20
37972;BME280;23794;48.234;8.344;2023-06-26T06:57:20;94383.19;;;22.72;46.15
37972;BME280;23794;48.234;8.344;2023-06-26T06:59:47;94380.84;;;22.95;46.02
37972;BME280;23794;48.234;8.344;2023-06-26T07:02:17;94379.81;;;23.08;45.41
37972;BME280;23794;48.234;8.344;2023-06-26T07:04:43;94381.19;;;23.27;44.88
37972;BME280;23794;48.234;8.344;2023-06-26T07:07:11;94382.63;;;23.37;45.48
37972;BME280;23794;48.234;8.344;2023-06-26T07:09:40;94379.84;;;23.52;42.67
37972;BME280;23794;48.234;8.344;2023-06-26T07:12:06;94377.72;;;23.62;43.05
37972;BME280;23794;48.234;8.344;2023-06-26T07:14:33;94389.88;;;23.74;42.15
37972;BME280;23794;48.234;8.344;2023-06-26T07:17:00;94390.06;;;23.86;41.69
37972;BME280;23794;48.234;8.344;2023-06-26T07:19:26;94384.56;;;23.91;41.91
37972;BME280;23794;48.234;8.344;2023-06-26T07:21:53;94391.28;;;23.99;42.77
37972;BME280;23794;48.234;8.344;2023-06-26T07:24:20;94397.06;;;24.11;41.81
37972;BME280;23794;48.234;8.344;2023-06-26T07:26:46;94398.13;;;24.13;42.05
37972;BME280;23794;48.234;8.344;2023-06-26T07:29:16;94405.63;;;24.22;41.73
37972;BME280;23794;48.234;8.344;2023-06-26T07:31:44;94410.81;;;24.29;41.58
37972;BME280;23794;48.234;8.344;2023-06-26T07:34:12;94403.47;;;24.32;41.20
37972;BME280;23794;48.234;8.344;2023-06-26T07:36:38;94416.59;;;24.26;41.92
37972;BME280;23794;48.234;8.344;2023-06-26T07:39:05;94405.19;;;24.29;41.36
37972;BME280;23794;48.234;8.344;2023-06-26T07:41:31;94407.91;;;24.39;41.14
37972;BME280;23794;48.234;8.344;2023-06-26T07:43:58;94407.28;;;24.50;40.73
37972;BME280;23794;48.234;8.344;2023-06-26T07:46:25;94407.28;;;24.50;40.24
37972;BME280;23794;48.234;8.344;2023-06-26T07:48:51;94401.19;;;24.51;39.85
37972;BME280;23794;48.234;8.344;2023-06-26T07:51:18;94399.81;;;24.61;39.71
37972;BME280;23794;48.234;8.344;2023-06-26T07:53:45;94408.13;;;24.76;39.29
37972;BME280;23794;48.234;8.344;2023-06-26T07:56:11;94407.28;;;24.91;39.53
37972;BME280;23794;48.234;8.344;2023-06-26T07:58:38;94396.66;;;24.95;39.96
37972;BME280;23794;48.234;8.344;2023-06-26T08:01:05;94403.19;;;24.86;38.42
37972;BME280;23794;48.234;8.344;2023-06-26T08:03:31;94401.47;;;24.94;39.73
37972;BME280;23794;48.234;8.344;2023-06-26T08:06:01;94399.19;;;24.93;38.14
37972;BME280;23794;48.234;8.344;2023-06-26T08:08:28;94397.78;;;25.03;38.14
37972;BME280;23794;48.234;8.344;2023-06-26T08:10:54;94392.94;;;25.24;38.31
37972;BME280;23794;48.234;8.344;2023-06-26T08:13:21;94390.47;;;25.32;38.09
37972;BME280;23794;48.234;8.344;2023-06-26T08:15:47;94400.41;;;25.33;38.22
37972;BME280;23794;48.234;8.344;2023-06-26T08:18:14;94396.28;;;25.29;37.75
37972;BME280;23794;48.234;8.344;2023-06-26T08:20:40;94405.88;;;25.42;38.54
37972;BME280;23794;48.234;8.344;2023-06-26T08:23:07;94394.41;;;25.72;38.78
37972;BME280;23794;48.234;8.344;2023-06-26T08:25:34;94391.41;;;25.76;38.03
37972;BME280;23794;48.234;8.344;2023-06-26T08:28:00;94394.22;;;25.50;38.05
37972;BME280;23794;48.234;8.344;2023-06-26T08:30:27;94390.59;;;25.44;37.79
37972;BME280;23794;48.234;8.344;2023-06-26T08:32:55;94389.94;;;25.54;37.59
37972;BME280;23794;48.234;8.344;2023-06-26T08:35:22;94394.13;;;25.70;37.53
37972;BME280;23794;48.234;8.344;2023-06-26T08:37:49;94387.59;;;25.79;36.83
37972;BME280;23794;48.234;8.344;2023-06-26T08:40:17;94399.78;;;26.02;37.09
37972;BME280;23794;48.234;8.344;2023-06-26T08:42:44;94394.19;;;26.08;37.03
37972;BME280;23794;48.234;8.344;2023-06-26T08:45:11;94384.59;;;26.20;36.94
37972;BME280;23794;48.234;8.344;2023-06-26T08:47:37;94389.19;;;26.24;37.77
37972;BME280;23794;48.234;8.344;2023-06-26T08:50:10;94375.66;;;26.22;36.75
37972;BME280;23794;48.234;8.344;2023-06-26T08:52:43;94379.16;;;26.43;36.52
37972;BME280;23794;48.234;8.344;2023-06-26T08:55:12;94371.09;;;26.68;36.39
37972;BME280;23794;48.234;8.344;2023-06-26T08:57:41;94373.97;;;26.85;34.80
37972;BME280;23794;48.234;8.344;2023-06-26T09:00:09;94379.09;;;26.87;34.67
37972;BME280;23794;48.234;8.344;2023-06-26T09:02:36;94388.72;;;26.68;35.20
37972;BME280;23794;48.234;8.344;2023-06-26T09:05:03;94380.81;;;26.73;34.96
37972;BME280;23794;48.234;8.344;2023-06-26T09:07:30;94385.50;;;26.98;35.60
37972;BME280;23794;48.234;8.344;2023-06-26T09:09:57;94395.72;;;26.96;34.07
37972;BME280;23794;48.234;8.344;2023-06-26T09:12:26;94389.88;;;26.99;35.06
37972;BME280;23794;48.234;8.344;2023-06-26T09:14:56;94399.97;;;26.80;34.90
37972;BME280;23794;48.234;8.344;2023-06-26T09:17:33;94407.63;;;26.68;36.05
37972;BME280;23794;48.234;8.344;2023-06-26T09:20:04;94397.25;;;26.42;36.21
37972;BME280;23794;48.234;8.344;2023-06-26T09:22:34;94393.22;;;26.55;37.08
37972;BME280;23794;48.234;8.344;2023-06-26T09:25:03;94395.88;;;26.70;37.82
37972;BME280;23794;48.234;8.344;2023-06-26T09:27:30;94397.50;;;26.93;37.00
37972;BME280;23794;48.234;8.344;2023-06-26T09:29:57;94401.25;;;26.73;37.67
37972;BME280;23794;48.234;8.344;2023-06-26T09:32:24;94405.44;;;26.95;38.04
37972;BME280;23794;48.234;8.344;2023-06-26T09:34:55;94400.91;;;27.09;38.77
37972;BME280;23794;48.234;8.344;2023-06-26T09:37:26;94406.03;;;27.22;37.81
37972;BME280;23794;48.234;8.344;2023-06-26T09:39:53;94401.22;;;27.22;37.68
37972;BME280;23794;48.234;8.344;2023-06-26T09:42:20;94396.34;;;27.17;37.84
37972;BME280;23794;48.234;8.344;2023-06-26T09:44:47;94401.22;;;27.34;39.00
37972;BME280;23794;48.234;8.344;2023-06-26T09:47:21;94405.59;;;27.46;37.75
37972;BME280;23794;48.234;8.344;2023-06-26T09:49:51;94402.53;;;27.44;37.88
37972;BME280;23794;48.234;8.344;2023-06-26T09:52:18;94411.16;;;27.29;37.57
37972;BME280;23794;48.234;8.344;2023-06-26T09:54:48;94413.78;;;27.50;38.38
37972;BME280;23794;48.234;8.344;2023-06-26T09:57:18;94417.69;;;27.86;37.66
37972;BME280;23794;48.234;8.344;2023-06-26T09:59:45;94415.91;;;27.83;37.30
37972;BME280;23794;48.234;8.344;2023-06-26T10:02:12;94410.28;;;27.89;37.05
37972;BME280;23794;48.234;8.344;2023-06-26T10:04:39;94433.81;;;27.80;37.62
37972;BME280;23794;48.234;8.344;2023-06-26T10:07:08;94433.50;;;27.61;37.47
37972;BME280;23794;48.234;8.344;2023-06-26T10:09:42;94428.19;;;27.91;37.62
37972;BME280;23794;48.234;8.344;2023-06-26T10:12:26;94427.16;;;28.06;37.22
37972;BME280;23794;48.234;8.344;2023-06-26T10:14:56;94426.66;;;27.85;36.65
37972;BME280;23794;48.234;8.344;2023-06-26T10:17:25;94436.88;;;27.76;36.71
37972;BME280;23794;48.234;8.344;2023-06-26T10:19:55;94430.69;;;27.61;36.24
37972;BME280;23794;48.234;8.344;2023-06-26T10:22:27;94431.25;;;27.93;36.04
37972;BME280;23794;48.234;8.344;2023-06-26T10:24:58;94432.25;;;28.59;36.21
37972;BME280;23794;48.234;8.344;2023-06-26T10:27:28;94433.03;;;28.53;34.84
37972;BME280;23794;48.234;8.344;2023-06-26T10:30:00;94442.00;;;28.52;35.38
37972;BME280;23794;48.234;8.344;2023-06-26T10:32:28;94451.47;;;28.66;34.92
37972;BME280;23794;48.234;8.344;2023-06-26T10:34:56;94450.97;;;28.50;35.46
37972;BME280;23794;48.234;8.344;2023-06-26T10:37:43;94451.50;;;28.43;36.24
37972;BME280;23794;48.234;8.344;2023-06-26T10:40:11;94457.13;;;28.43;35.26
37972;BME280;23794;48.234;8.344;2023-06-26T10:42:39;94451.50;;;28.49;35.92
37972;BME280;23794;48.234;8.344;2023-06-26T10:47:39;94459.91;;;28.15;36.58
37972;BME280;23794;48.234;8.344;2023-06-26T10:53:14;94452.78;;;28.08;37.64
37972;BME280;23794;48.234;8.344;2023-06-26T10:55:44;94458.41;;;28.31;37.54
37972;BME280;23794;48.234;8.344;2023-06-26T10:58:33;94455.59;;;28.48;36.81
37972;BME280;23794;48.234;8.344;2023-06-26T11:03:44;94462.00;;;28.37;36.31
37972;BME280;23794;48.234;8.344;2023-06-26T11:06:12;94460.66;;;28.66;36.05
37972;BME280;23794;48.234;8.344;2023-06-26T11:11:55;94444.63;;;29.20;35.13
37972;BME280;23794;48.234;8.344;2023-06-26T11:14:26;94454.09;;;29.23;35.01
37972;BME280;23794;48.234;8.344;2023-06-26T11:16:55;94456.56;;;29.55;34.85
37972;BME280;23794;48.234;8.344;2023-06-26T11:19:22;94449.59;;;29.61;34.65
37972;BME280;23794;48.234;8.344;2023-06-26T11:21:49;94445.66;;;29.76;34.33
37972;BME280;23794;48.234;8.344;2023-06-26T11:24:17;94431.09;;;29.13;34.88
37972;BME280;23794;48.234;8.344;2023-06-26T11:26:45;94455.22;;;29.02;36.71
37972;BME280;23794;48.234;8.344;2023-06-26T11:29:12;94448.81;;;28.96;35.72
37972;BME280;23794;48.234;8.344;2023-06-26T11:31:40;94452.66;;;28.99;35.78
37972;BME280;23794;48.234;8.344;2023-06-26T11:34:09;94459.88;;;28.83;36.15
37972;BME280;23794;48.234;8.344;2023-06-26T11:36:39;94459.63;;;28.92;36.50
37972;BME280;23794;48.234;8.344;2023-06-26T11:39:06;94454.00;;;28.69;36.20
37972;BME280;23794;48.234;8.344;2023-06-26T11:41:35;94448.06;;;28.96;35.86
37972;BME280;23794;48.234;8.344;2023-06-26T11:44:03;94443.84;;;29.25;36.23
37972;BME280;23794;48.234;8.344;2023-06-26T11:46:31;94448.19;;;29.79;34.86
37972;BME280;23794;48.234;8.344;2023-06-26T11:48:58;94464.91;;;30.13;34.86
37972;BME280;23794;48.234;8.344;2023-06-26T11:51:28;94449.47;;;29.31;33.55
37972;BME280;23794;48.234;8.344;2023-06-26T11:53:54;94452.97;;;29.48;34.64
37972;BME280;23794;48.234;8.344;2023-06-26T11:56:21;94453.56;;;29.30;35.28
37972;BME280;23794;48.234;8.344;2023-06-26T11:59:18;94457.09;;;29.42;35.87
37972;BME280;23794;48.234;8.344;2023-06-26T12:01:45;94464.00;;;28.70;36.92
37972;BME280;23794;48.234;8.344;2023-06-26T12:04:14;94465.31;;;28.30;37.66
37972;BME280;23794;48.234;8.344;2023-06-26T12:06:49;94465.56;;;28.15;38.22
37972;BME280;23794;48.234;8.344;2023-06-26T12:09:18;94467.34;;;28.18;37.79
37972;BME280;23794;48.234;8.344;2023-06-26T12:11:47;94463.75;;;28.17;37.76
37972;BME280;23794;48.234;8.344;2023-06-26T12:14:19;94462.50;;;28.47;38.44
37972;BME280;23794;48.234;8.344;2023-06-26T12:16:46;94466.31;;;28.09;38.41
37972;BME280;23794;48.234;8.344;2023-06-26T12:19:13;94481.63;;;27.80;38.92
37972;BME280;23794;48.234;8.344;2023-06-26T12:24:08;94477.13;;;26.79;40.38
37972;BME280;23794;48.234;8.344;2023-06-26T12:26:35;94474.31;;;26.79;41.00
37972;BME280;23794;48.234;8.344;2023-06-26T12:29:07;94480.66;;;27.17;40.76
37972;BME280;23794;48.234;8.344;2023-06-26T12:31:34;94464.25;;;28.10;39.96
37972;BME280;23794;48.234;8.344;2023-06-26T12:34:09;94463.78;;;28.12;39.36
37972;BME280;23794;48.234;8.344;2023-06-26T12:36:40;94472.88;;;27.67;39.73
37972;BME280;23794;48.234;8.344;2023-06-26T12:39:09;94474.63;;;27.53;40.02
37972;BME280;23794;48.234;8.344;2023-06-26T12:44:27;94480.94;;;27.25;40.30
37972;BME280;23794;48.234;8.344;2023-06-26T12:46:56;94479.03;;;27.05;40.32
37972;BME280;23794;48.234;8.344;2023-06-26T12:49:50;94464.97;;;27.05;40.52
37972;BME280;23794;48.234;8.344;2023-06-26T12:52:19;94466.25;;;26.98;40.77
37972;BME280;23794;48.234;8.344;2023-06-26T12:54:47;94461.34;;;26.93;40.89
37972;BME280;23794;48.234;8.344;2023-06-26T12:57:17;94460.59;;;26.92;41.44
37972;BME280;23794;48.234;8.344;2023-06-26T12:59:44;94461.09;;;27.51;40.01
37972;BME280;23794;48.234;8.344;2023-06-26T13:02:10;94453.25;;;28.06;39.40
37972;BME280;23794;48.234;8.344;2023-06-26T13:04:40;94461.19;;;28.19;40.00
37972;BME280;23794;48.234;8.344;2023-06-26T13:07:08;94448.56;;;29.00;38.39
37972;BME280;23794;48.234;8.344;2023-06-26T13:09:35;94441.63;;;29.60;37.92
37972;BME280;23794;48.234;8.344;2023-06-26T13:12:05;94441.72;;;29.37;36.34
37972;BME280;23794;48.234;8.344;2023-06-26T13:14:32;94440.44;;;29.44;36.32
37972;BME280;23794;48.234;8.344;2023-06-26T13:17:02;94447.56;;;28.92;36.31
37972;BME280;23794;48.234;8.344;2023-06-26T13:19:30;94437.94;;;28.42;37.80
37972;BME280;23794;48.234;8.344;2023-06-26T13:21:56;94443.22;;;28.85;37.67
37972;BME280;23794;48.234;8.344;2023-06-26T13:24:23;94438.19;;;29.25;36.69
37972;BME280;23794;48.234;8.344;2023-06-26T13:26:49;94445.38;;;29.79;35.93
37972;BME280;23794;48.234;8.344;2023-06-26T13:29:16;94433.16;;;29.65;35.24
37972;BME280;23794;48.234;8.344;2023-06-26T13:31:43;94422.34;;;29.70;34.81